Terminal Aerodrome Forecast
Issued by NWS

Home | Current Version | Previous Version | Graphics & Text | Print | Product List | Glossary On
Versions: 1 2 3 4 5 6 7 8 9 10 11 12 13 14 15 16 17 18 19
000
FTUS43 KMPX 150903 AAA
TAFRWF
TAF AMD
KRWF 150903Z 1509/1606 27006KT 6SM -SN SCT025 OVC040
     FM152000 20008KT P6SM OVC050
     FM160000 18007KT P6SM OVC060=

USA.gov is the U.S. government's official web portal to all federal, state and local government web resources and services.